Latest Weather Observations for Griffith

IDN60801

Issued at 11:32 pm EDT Wednesday 10 February 2016 (issued every 30 minutes, with the page automatically refreshed every 10 minutes)

About weather observations | Map of weather stations | Latest weather observations for NSW | Other Formats
Station Details ID: 075041 Name: GRIFFITH AIRPORT AWS Lat: -34.25 Lon: 146.07 Height: 134.0 m
Data from the previous 72 hours. | See also: Recent months at Griffith
Date/Time
EDT
Temp
°C
App
Temp
°C
Dew
Point
Rel
Hum
%
Delta-T
°C
Wind Press
QNH
hPa
Press
MSL
hPa
Rain
since 9 am
mm
Dir
 
Spd
km/h
Gust
km/h
Spd
kts
Gust
kts
10/11:30pm 28.0 23.3 3.0 20 12.5 SSE 17 24 9 13 1011.5 1010.8 0.0
10/11:00pm 28.2 23.4 2.4 19 12.8 SSE 17 20 9 11 1011.4 1010.7 0.0
10/10:30pm 29.0 24.4 1.5 17 13.5 SSE 15 20 8 11 1011.5 1010.8 0.0
10/10:00pm 29.5 24.8 1.1 16 13.9 S 15 19 8 10 1011.3 1010.6 0.0
10/09:30pm 30.0 25.6 0.6 15 14.3 S 13 19 7 10 1011.0 1010.3 0.0
10/09:00pm 30.4 26.2 1.8 16 14.2 S 13 17 7 9 1010.7 1010.0 0.0
10/08:30pm 31.4 27.2 1.7 15 14.8 SSW 13 19 7 10 1010.5 1009.8 0.0
10/08:00pm 32.6 28.0 1.7 14 15.6 SSW 15 19 8 10 1010.3 1009.6 0.0
10/07:30pm 34.4 29.9 2.0 13 16.6 SW 15 20 8 11 1010.0 1009.3 0.0
10/07:00pm 35.0 28.9 0.2 11 17.4 SW 22 30 12 16 1009.6 1008.9 0.0
10/06:30pm 36.0 29.8 -0.4 10 18.1 SSW 22 33 12 18 1009.5 1008.8 0.0
10/06:00pm 36.8 31.6 0.2 10 18.5 SSW 17 28 9 15 1009.3 1008.6 0.0
10/05:30pm 37.7 31.5 -0.6 9 19.2 SW 22 32 12 17 1009.2 1008.5 0.0
10/05:00pm 37.7 31.5 -0.6 9 19.2 SW 22 37 12 20 1009.3 1008.6 0.0
10/04:30pm 37.3 32.0 -0.9 9 19.0 WSW 17 26 9 14 1009.5 1008.8 0.0
10/04:00pm 37.1 31.2 -1.0 9 18.9 WSW 20 37 11 20 1009.8 1009.1 0.0
10/03:30pm 37.3 31.2 0.6 10 18.7 SW 22 35 12 19 1010.2 1009.5 0.0
10/03:00pm 36.4 30.6 -0.1 10 18.3 WSW 20 28 11 15 1010.5 1009.8 0.0
10/02:46pm 36.7 29.8 2.7 12 17.8 WNW 28 43 15 23 1010.7 1010.0 0.0
10/02:30pm 36.5 31.5 3.7 13 17.4 WSW 19 28 10 15 1011.0 1010.3 0.0
10/02:00pm 36.1 30.7 4.4 14 17.0 WNW 22 54 12 29 1011.4 1010.7 0.0
10/01:56pm 36.5 31.7 5.7 15 16.9 NW 20 54 11 29 1011.4 1010.7 0.0
10/01:30pm 35.3 30.0 6.6 17 15.9 NW 24 35 13 19 1011.7 1011.0 0.0
10/01:00pm 35.0 29.8 5.4 16 16.0 WNW 22 32 12 17 1012.2 1011.5 0.0
10/12:30pm 34.2 30.3 8.8 21 14.4 NW 19 28 10 15 1012.7 1012.0 0.0
10/12:00pm 33.4 29.8 10.7 25 13.2 WNW 20 30 11 16 1013.2 1012.5 0.0
10/11:30am 32.7 28.6 11.3 27 12.6 NW 24 33 13 18 1013.6 1012.9 0.0
10/11:00am 31.9 28.6 12.7 31 11.5 NW 22 32 12 17 1013.8 1013.1 0.0
10/10:30am 30.7 26.3 11.6 31 11.2 NW 26 35 14 19 1014.0 1013.3 0.0
10/10:00am 30.3 25.9 11.8 32 10.8 NNW 26 33 14 18 1014.0 1013.3 0.0
10/09:30am 29.3 26.2 12.3 35 10.0 NNW 20 32 11 17 1014.2 1013.6 0.0
10/09:00am 27.4 24.5 13.0 41 8.5 N 20 26 11 14 1014.2 1013.6 0.0
10/08:30am 25.9 24.4 13.1 45 7.5 NW 13 17 7 9 1014.2 1013.6 0.0
10/08:00am 23.8 22.7 11.8 47 6.8 NW 9 13 5 7 1013.9 1013.2 0.0
10/07:30am 21.6 20.2 11.0 51 5.9 NW 9 11 5 6 1013.6 1012.9 0.0
10/07:00am 19.1 18.3 9.6 54 5.1 NW 4 7 2 4 1013.4 1012.7 0.0
10/06:30am 18.2 16.7 8.5 53 5.0 W 6 7 3 4 1013.0 1012.3 0.0
10/06:00am 17.7 16.1 8.0 53 5.0 NW 6 9 3 5 1012.9 1012.2 0.0
10/05:30am 17.1 16.0 8.3 56 4.5 NW 4 6 2 3 1012.6 1011.9 0.0
10/05:00am 18.0 17.5 7.7 51 5.3 CALM 0 0 0 0 1012.2 1011.5 0.0
10/04:30am 18.4 16.5 7.5 49 5.6 E 7 9 4 5 1012.0 1011.3 0.0
10/04:00am 18.1 17.5 7.2 49 5.5 CALM 0 0 0 0 1012.1 1011.4 0.0
10/03:30am 18.5 17.7 6.7 46 5.9 CALM 0 0 0 0 1012.4 1011.7 0.0
10/03:00am 19.2 17.6 8.2 49 5.7 NNW 6 7 3 4 1012.6 1011.9 0.0
10/02:30am 19.4 17.1 5.8 41 6.8 S 7 7 4 4 1012.8 1012.1 0.0
10/02:00am 20.3 19.6 7.0 42 6.8 CALM 0 0 0 0 1013.1 1012.4 0.0
10/01:30am 20.5 19.8 6.8 41 7.0 CALM 0 6 0 3 1013.5 1012.8 0.0
10/01:00am 22.1 20.9 6.3 36 8.1 E 2 7 1 4 1013.8 1013.1 0.0
10/12:30am 23.0 20.6 7.1 36 8.3 NNE 9 13 5 7 1013.9 1013.2 0.0
10/12:29am 23.2 20.8 6.9 35 8.5 NNE 9 13 5 7 1013.9 1013.2 0.0
10/12:00am 28.2 24.3 0.9 17 13.2 SSE 11 15 6 8 1013.9 1013.2 0.0
 
Date/Time
EDT
Temp
°C
App
Temp
°C
Dew
Point
Rel
Hum
%
Delta-T
°C
Wind Press
QNH
hPa
Press
MSL
hPa
Rain
since 9 am
mm
Dir
 
Spd
km/h
Gust
km/h
Spd
kts
Gust
kts
09/11:30pm 28.5 24.9 2.7 19 12.9 S 11 13 6 7 1014.0 1013.3 0.0
09/11:00pm 28.9 25.5 5.7 23 12.2 S 13 15 7 8 1014.0 1013.3 0.0
09/10:30pm 28.3 25.5 8.6 29 10.9 S 13 15 7 8 1014.1 1013.4 0.0
09/10:00pm 27.0 25.6 8.9 32 10.0 E 6 7 3 4 1014.0 1013.3 0.0
09/09:30pm 27.2 26.5 8.6 31 10.2 NE 2 7 1 4 1013.8 1013.1 0.0
09/09:00pm 28.0 27.7 8.8 30 10.6 CALM 0 0 0 0 1013.7 1013.0 0.0
09/08:30pm 29.0 27.4 8.7 28 11.2 NE 7 7 4 4 1013.6 1012.9 0.0
09/08:00pm 32.6 31.8 8.1 22 13.7 NNE 2 6 1 3 1013.6 1012.9 0.0
09/07:30pm 34.2 32.4 7.3 19 14.9 N 6 11 3 6 1013.5 1012.8 0.0
09/07:00pm 35.3 33.9 5.7 16 16.1 NNW 2 7 1 4 1013.3 1012.6 0.0
09/06:30pm 36.5 35.5 7.5 17 16.3 SSW 2 13 1 7 1013.3 1012.6 0.0
09/06:00pm 35.6 32.6 7.6 18 15.7 ENE 13 19 7 10 1013.4 1012.7 0.0
09/05:30pm 35.4 32.9 6.6 17 15.9 ESE 9 15 5 8 1013.8 1013.1 0.0
09/05:00pm 36.1 33.6 8.0 18 15.9 SW 11 19 6 10 1014.0 1013.3 0.0
09/04:30pm 35.7 32.5 8.5 19 15.5 SSW 15 24 8 13 1014.4 1013.8 0.0
09/04:00pm 36.1 33.0 7.2 17 16.2 WSW 13 22 7 12 1014.8 1014.2 0.0
09/03:30pm 35.7 31.4 7.7 18 15.8 SW 20 32 11 17 1015.3 1014.7 0.0
09/03:00pm 34.7 32.2 8.4 20 14.9 W 11 20 6 11 1015.8 1015.1 0.0
09/02:30pm 35.1 32.9 10.9 23 14.3 NW 13 20 7 11 1016.2 1015.5 0.0
09/02:00pm 35.0 33.2 10.8 23 14.2 NE 11 19 6 10 1016.6 1015.9 0.0
09/01:30pm 33.6 30.3 9.6 23 13.8 NNW 17 26 9 14 1017.0 1016.3 0.0
09/01:00pm 33.4 31.2 10.7 25 13.2 N 13 22 7 12 1017.3 1016.6 0.0
09/12:30pm 32.7 29.8 9.5 24 13.2 NNW 15 28 8 15 1017.7 1017.0 0.0
09/12:00pm 32.3 30.1 10.9 27 12.4 NW 13 24 7 13 1018.1 1017.4 0.0
09/11:30am 31.3 28.4 11.1 29 11.8 N 17 24 9 13 1018.4 1017.7 0.0
09/11:00am 30.7 28.4 11.6 31 11.2 N 15 28 8 15 1018.6 1017.9 0.0
09/10:30am 29.4 25.9 11.0 32 10.6 N 20 28 11 15 1018.7 1018.0 0.0
09/10:00am 28.7 24.6 11.3 34 10.0 N 24 30 13 16 1018.8 1018.1 0.0
09/09:30am 27.8 23.9 10.9 35 9.6 NNE 22 32 12 17 1018.8 1018.1 0.0
09/09:00am 27.0 23.8 11.9 39 8.7 NNE 20 30 11 16 1018.6 1017.9 0.0
09/08:30am 26.4 23.6 11.3 39 8.6 NNE 17 22 9 12 1018.3 1017.6 0.0
09/08:00am 24.1 22.7 12.1 47 6.9 ENE 11 15 6 8 1018.1 1017.4 0.0
09/07:30am 21.0 19.0 11.6 55 5.3 E 13 17 7 9 1018.0 1017.3 0.0
09/07:00am 19.1 19.4 10.9 59 4.5 CALM 0 0 0 0 1017.7 1017.0 0.0
09/06:30am 20.5 18.8 10.0 51 5.7 SE 9 13 5 7 1017.3 1016.6 0.0
09/06:00am 21.5 19.9 10.3 49 6.1 SSE 9 13 5 7 1016.9 1016.2 0.0
09/05:30am 21.6 19.2 10.1 48 6.3 SSE 13 19 7 10 1016.6 1015.9 0.0
09/05:00am 21.9 18.4 10.1 47 6.4 SSE 19 24 10 13 1016.2 1015.5 0.0
09/04:30am 22.3 18.6 10.1 46 6.7 SE 20 24 11 13 1016.0 1015.3 0.0
09/04:00am 22.7 19.2 10.2 45 6.9 SE 19 22 10 12 1015.9 1015.2 0.0
09/03:30am 22.5 19.4 10.3 46 6.7 SE 17 20 9 11 1016.1 1015.4 0.0
09/03:00am 23.8 20.3 10.1 42 7.6 SE 19 24 10 13 1016.1 1015.4 0.0
09/02:30am 24.2 21.0 9.8 40 7.9 SE 17 22 9 12 1016.1 1015.4 0.0
09/02:00am 25.0 21.7 9.7 38 8.4 SE 17 24 9 13 1016.2 1015.5 0.0
09/01:30am 25.4 22.1 9.7 37 8.7 SSE 17 20 9 11 1016.3 1015.6 0.0
09/01:00am 25.9 22.2 9.3 35 9.1 SE 19 26 10 14 1016.4 1015.7 0.0
09/12:30am 26.9 23.0 9.3 33 9.7 SSE 20 28 11 15 1016.1 1015.4 0.0
09/12:00am 27.7 24.0 9.5 32 10.1 SSE 19 26 10 14 1016.2 1015.5 0.0
 
Date/Time
EDT
Temp
°C
App
Temp
°C
Dew
Point
Rel
Hum
%
Delta-T
°C
Wind Press
QNH
hPa
Press
MSL
hPa
Rain
since 9 am
mm
Dir
 
Spd
km/h
Gust
km/h
Spd
kts
Gust
kts
08/11:30pm 28.1 24.5 9.9 32 10.2 SE 19 24 10 13 1016.2 1015.5 0.0
08/11:00pm 28.6 25.9 10.3 32 10.4 SE 15 22 8 12 1016.3 1015.6 0.0
08/10:30pm 29.0 26.0 10.6 32 10.5 S 17 24 9 13 1016.3 1015.6 0.0
08/10:00pm 25.7 24.6 11.8 42 8.0 SE 9 11 5 6 1016.0 1015.3 0.0
08/09:30pm 26.4 25.4 10.9 38 8.8 ESE 7 9 4 5 1015.6 1015.0 0.0
08/09:00pm 27.6 26.7 11.2 36 9.4 ESE 7 9 4 5 1015.3 1014.7 0.0
08/08:30pm 29.4 27.9 10.5 31 10.8 ESE 9 11 5 6 1015.2 1014.6 0.0
08/08:00pm 31.1 29.2 10.4 28 11.9 ESE 11 13 6 7 1015.0 1014.4 0.0
08/07:30pm 33.4 30.1 9.4 23 13.7 ESE 17 22 9 12 1014.8 1014.2 0.0
08/07:00pm 34.4 31.3 10.3 23 14.0 ESE 17 26 9 14 1014.5 1013.9 0.0
08/06:30pm 34.7 30.7 9.2 21 14.6 SE 20 30 11 16 1014.5 1013.9 0.0
08/06:00pm 34.8 30.9 8.5 20 14.9 SSE 19 22 10 12 1014.6 1014.0 0.0
08/05:30pm 35.4 31.6 9.0 20 15.1 SE 19 30 10 16 1014.8 1014.2 0.0
08/05:00pm 35.6 32.2 7.6 18 15.7 SE 15 28 8 15 1015.1 1014.5 0.0
08/04:30pm 35.5 32.3 8.3 19 15.4 SE 15 26 8 14 1015.4 1014.8 0.0
08/04:00pm 35.6 33.0 9.2 20 15.2 SSW 13 28 7 15 1015.6 1015.0 0.0
08/03:30pm 35.3 32.0 9.7 21 14.8 SSE 17 37 9 20 1016.0 1015.3 0.0
08/03:00pm 35.1 31.0 8.8 20 15.0 SE 20 33 11 18 1016.3 1015.6 0.0
08/02:30pm 35.1 31.0 8.8 20 15.0 SSE 20 32 11 17 1016.7 1016.0 0.0
08/02:00pm 33.8 32.6 11.6 26 13.1 SW 9 22 5 12 1017.1 1016.4 0.0
08/01:30pm 33.4 30.6 11.3 26 13.0 SSW 17 24 9 13 1017.5 1016.8 0.0
08/01:00pm 33.4 30.8 11.9 27 12.8 SW 17 24 9 13 1017.8 1017.1 0.0
08/12:30pm 32.2 31.5 11.9 29 12.0 S 7 15 4 8 1018.1 1017.4 0.0
08/12:00pm 31.9 31.3 12.2 30 11.7 SW 7 11 4 6 1018.4 1017.7 0.0
08/11:30am 31.5 30.9 12.3 31 11.4 SSE 7 15 4 8 1018.6 1017.9 0.0
08/11:00am 30.4 28.9 11.9 32 10.8 N 11 17 6 9 1018.6 1017.9 0.0
08/10:30am 29.7 28.0 12.6 35 10.1 N 13 17 7 9 1018.7 1018.0 0.0
08/10:00am 29.2 28.1 13.0 37 9.6 N 11 17 6 9 1018.8 1018.1 0.0
08/09:30am 27.0 26.2 13.0 42 8.2 NNW 9 15 5 8 1018.8 1018.1 0.0
08/09:00am 25.9 24.7 11.6 40 8.2 N 9 13 5 7 1018.7 1018.0 0.0
08/08:30am 24.5 25.2 12.1 46 7.1 CALM 0 0 0 0 1018.5 1017.8 0.0
08/08:00am 22.9 22.8 12.2 51 6.1 ESE 4 6 2 3 1018.1 1017.4 0.0
08/07:30am 20.2 19.6 12.4 61 4.4 ENE 7 13 4 7 1017.9 1017.2 0.0
08/07:00am 19.7 16.8 12.2 62 4.2 ESE 19 19 10 10 1017.5 1016.8 0.0
08/06:30am 19.2 16.4 12.5 65 3.8 ESE 19 20 10 11 1017.1 1016.4 0.0
08/06:00am 19.7 16.8 12.2 62 4.2 ESE 19 20 10 11 1016.8 1016.1 0.0
08/05:30am 19.7 17.0 12.9 65 3.9 ESE 19 20 10 11 1016.5 1015.8 0.0
08/05:00am 20.4 18.0 12.6 61 4.4 ESE 17 19 9 10 1016.3 1015.6 0.0
08/04:30am 19.7 17.9 13.2 66 3.7 ESE 15 17 8 9 1016.1 1015.4 0.0
08/04:00am 20.4 18.5 12.9 62 4.3 ESE 15 17 8 9 1016.0 1015.3 0.0
08/03:30am 21.2 19.3 12.9 59 4.8 ESE 15 15 8 8 1015.9 1015.2 0.0
08/03:00am 20.6 19.1 13.1 62 4.3 E 13 13 7 7 1016.0 1015.3 0.0
08/02:30am 20.9 19.3 12.8 60 4.6 E 13 13 7 7 1016.1 1015.4 0.0
08/02:00am 21.8 20.6 12.9 57 5.1 ESE 11 13 6 7 1016.2 1015.5 0.0
08/01:30am 21.6 20.1 13.0 58 4.9 E 13 13 7 7 1016.2 1015.5 0.0
08/01:00am 22.5 21.6 12.7 54 5.6 E 9 11 5 6 1016.3 1015.6 0.0
08/12:30am 22.7 21.9 12.9 54 5.7 E 9 13 5 7 1016.4 1015.7 0.0
08/12:00am 22.4 20.9 13.2 56 5.3 E 13 13 7 7 1016.4 1015.7 0.0

Other Formats:

Comma delimited format used in spreadsheet applications
http://www.bom.gov.au/fwo/IDN60801/IDN60801.95704.axf

JavaScript Object Notation format (JSON) in row-major order
http://www.bom.gov.au/fwo/IDN60801/IDN60801.95704.json